createdAt,value
2022-09-01T00:00:01.814Z,86.11
2022-09-01T00:02:34.840Z,86.28
2022-09-01T00:05:06.135Z,86.46
2022-09-01T00:07:36.740Z,86.47
2022-09-01T00:10:08.341Z,86.50
2022-09-01T00:12:37.019Z,86.82
2022-09-01T00:15:07.164Z,86.71
2022-09-01T00:17:35.943Z,86.72
2022-09-01T00:20:04.917Z,86.69
2022-09-01T00:22:33.813Z,86.91
2022-09-01T00:25:03.067Z,86.92
2022-09-01T00:27:31.271Z,87.07
2022-09-01T00:29:59.379Z,87.04
2022-09-01T00:32:27.638Z,87.17
2022-09-01T00:34:55.399Z,87.30
2022-09-01T00:37:24.022Z,87.06
2022-09-01T00:39:51.695Z,87.09
2022-09-01T00:42:21.483Z,87.02
2022-09-01T00:44:49.476Z,86.87
2022-09-01T00:47:19.453Z,86.54
2022-09-01T00:49:50.375Z,86.47
2022-09-01T00:52:23.547Z,86.18
2022-09-01T00:54:58.218Z,85.96
2022-09-01T00:57:28.818Z,85.95
2022-09-01T01:00:01.513Z,86.07
2022-09-01T01:02:29.782Z,86.05
2022-09-01T01:05:00.537Z,86.13
2022-09-01T01:07:29.842Z,86.31
2022-09-01T01:09:58.290Z,86.07
2022-09-01T01:12:28.471Z,85.99
2022-09-01T01:14:57.031Z,85.97
2022-09-01T01:17:26.095Z,86.25
2022-09-01T01:20:14.328Z,86.00
2022-09-01T01:23:06.783Z,86.31
2022-09-01T01:25:41.880Z,86.54
2022-09-01T01:28:16.099Z,86.60
2022-09-01T01:30:52.235Z,86.77
2022-09-01T01:33:22.716Z,86.61
2022-09-01T01:35:52.858Z,86.68
2022-09-01T01:38:23.261Z,86.47
2022-09-01T01:40:55.546Z,86.93
2022-09-01T01:43:26.769Z,86.42
2022-09-01T01:45:59.022Z,86.17
2022-09-01T01:48:34.911Z,86.00
2022-09-01T01:51:04.559Z,85.98
2022-09-01T01:53:34.367Z,86.07
2022-09-01T01:56:06.197Z,86.15
2022-09-01T01:58:37.152Z,86.19
2022-09-01T02:01:13.145Z,86.14
2022-09-01T02:03:41.966Z,86.27
2022-09-01T02:06:12.184Z,86.83
2022-09-01T02:08:42.389Z,86.35
2022-09-01T02:11:13.145Z,86.49
2022-09-01T02:13:41.743Z,86.49
2022-09-01T02:16:13.007Z,86.82
2022-09-01T02:18:48.445Z,86.75
2022-09-01T02:21:19.680Z,86.75
2022-09-01T02:23:49.689Z,86.78
2022-09-01T02:26:23.714Z,86.36
2022-09-01T02:28:55.382Z,86.37
2022-09-01T02:31:28.454Z,86.09
2022-09-01T02:34:01.264Z,85.91
2022-09-01T02:36:32.762Z,86.04
2022-09-01T02:39:02.177Z,85.82
2022-09-01T02:41:34.391Z,85.85
2022-09-01T02:44:04.283Z,86.15
2022-09-01T02:46:32.719Z,86.29
2022-09-01T02:49:04.569Z,85.89
2022-09-01T02:51:33.319Z,86.19
2022-09-01T02:54:01.979Z,86.17
2022-09-01T02:56:31.108Z,86.01
2022-09-01T02:59:02.131Z,85.89
2022-09-01T03:01:33.077Z,84.74
2022-09-01T03:04:06.117Z,84.84
2022-09-01T03:06:36.372Z,85.06
2022-09-01T03:09:07.101Z,84.94
2022-09-01T03:11:38.914Z,85.32
2022-09-01T03:14:08.594Z,85.21
2022-09-01T03:16:37.205Z,85.24
2022-09-01T03:19:07.428Z,85.48
2022-09-01T03:21:35.566Z,85.69
2022-09-01T03:24:04.859Z,85.65
2022-09-01T03:26:32.708Z,85.75
2022-09-01T03:29:02.047Z,85.51
2022-09-01T03:31:31.176Z,85.78
2022-09-01T03:34:03.321Z,85.42
2022-09-01T03:36:35.157Z,85.56
2022-09-01T03:39:03.720Z,85.11
2022-09-01T03:41:33.335Z,85.44
2022-09-01T03:44:02.816Z,85.83
2022-09-01T03:46:36.805Z,85.78
2022-09-01T03:49:08.048Z,85.90
2022-09-01T03:51:38.939Z,86.02
2022-09-01T03:54:09.052Z,85.93
2022-09-01T03:56:40.023Z,85.65
2022-09-01T03:59:16.618Z,86.09
2022-09-01T04:01:46.223Z,86.08
2022-09-01T04:04:15.477Z,86.24
2022-09-01T04:06:44.418Z,85.88
2022-09-01T04:09:12.829Z,86.10
2022-09-01T04:11:46.254Z,85.89
2022-09-01T04:14:17.370Z,86.19
2022-09-01T04:17:05.098Z,85.97
2022-09-01T04:19:36.826Z,85.99
2022-09-01T04:22:05.360Z,85.96
2022-09-01T04:24:46.716Z,85.98
2022-09-01T04:27:15.721Z,86.20
2022-09-01T04:29:48.890Z,86.25
2022-09-01T04:32:17.319Z,85.92
2022-09-01T04:34:52.097Z,85.76
2022-09-01T04:37:22.131Z,85.97
2022-09-01T04:39:57.102Z,85.96
2022-09-01T04:42:28.936Z,86.03
2022-09-01T04:45:01.975Z,86.10
2022-09-01T04:47:35.757Z,86.26
2022-09-01T04:50:14.170Z,86.13
2022-09-01T04:52:45.604Z,86.19
2022-09-01T04:55:28.077Z,86.09
2022-09-01T04:57:56.727Z,86.17
2022-09-01T05:00:32.287Z,86.04
2022-09-01T05:03:04.296Z,86.08
2022-09-01T05:05:54.361Z,86.03
2022-09-01T05:08:25.064Z,86.13
2022-09-01T05:10:58.685Z,85.96
2022-09-01T05:13:38.885Z,86.07
2022-09-01T05:16:13.066Z,86.03
2022-09-01T05:18:48.050Z,86.09
2022-09-01T05:21:18.275Z,86.05
2022-09-01T05:23:47.118Z,85.97
2022-09-01T05:26:18.776Z,86.05
2022-09-01T05:28:48.694Z,85.81
2022-09-01T05:31:19.698Z,85.34
2022-09-01T05:33:48.404Z,85.22
2022-09-01T05:36:20.152Z,85.07
2022-09-01T05:38:49.072Z,84.78
2022-09-01T05:41:19.474Z,84.93
2022-09-01T05:43:49.855Z,85.10
2022-09-01T05:46:25.075Z,84.64
2022-09-01T05:48:56.158Z,84.71
2022-09-01T05:51:45.385Z,85.05
2022-09-01T05:54:15.072Z,84.71
2022-09-01T05:56:44.712Z,84.65
2022-09-01T05:59:25.533Z,84.25
2022-09-01T06:02:00.833Z,83.47
2022-09-01T06:04:30.293Z,83.35
2022-09-01T06:07:08.901Z,82.62
2022-09-01T06:09:40.406Z,82.91
2022-09-01T06:12:17.793Z,82.19
2022-09-01T06:14:47.266Z,82.12
2022-09-01T06:17:22.077Z,81.54
2022-09-01T06:19:52.984Z,81.46
2022-09-01T06:22:21.760Z,80.94
2022-09-01T06:24:55.703Z,80.42
2022-09-01T06:27:30.483Z,80.03
2022-09-01T06:29:58.879Z,79.71
2022-09-01T06:32:28.816Z,79.80
2022-09-01T06:34:58.143Z,79.47
2022-09-01T06:37:26.829Z,79.06
2022-09-01T06:39:59.567Z,79.21
2022-09-01T06:42:29.128Z,78.06
2022-09-01T06:45:00.387Z,78.02
2022-09-01T06:47:30.623Z,78.01
2022-09-01T06:50:00.695Z,77.70
2022-09-01T06:53:32.200Z,77.24
2022-09-01T06:55:18.225Z,77.12
2022-09-01T06:58:15.141Z,77.94
2022-09-01T07:00:50.052Z,76.82
2022-09-01T07:03:20.044Z,77.09
2022-09-01T07:06:00.716Z,77.28
2022-09-01T07:14:27.617Z,76.67
2022-09-01T07:17:23.294Z,76.31
2022-09-01T07:19:49.239Z,76.74
2022-09-01T07:28:06.107Z,75.85
2022-09-01T07:30:35.879Z,76.33
2022-09-01T07:45:25.454Z,75.12
2022-09-01T07:47:57.123Z,75.26
2022-09-01T07:50:40.288Z,75.51
2022-09-01T07:53:12.556Z,75.37
2022-09-01T07:55:42.201Z,75.49
2022-09-01T07:58:12.010Z,75.86
2022-09-01T08:00:43.541Z,76.02
2022-09-01T08:03:11.374Z,76.05
2022-09-01T08:05:39.672Z,76.16
2022-09-01T08:08:28.418Z,76.26
2022-09-01T08:11:04.927Z,76.29
2022-09-01T08:13:38.918Z,76.05
2022-09-01T08:16:17.966Z,76.21
2022-09-01T08:18:48.826Z,75.72
2022-09-01T08:21:52.326Z,75.53
2022-09-01T08:24:37.322Z,75.35
2022-09-01T08:27:06.995Z,75.44
2022-09-01T08:29:35.502Z,75.15
2022-09-01T08:32:04.521Z,74.88
2022-09-01T08:34:33.718Z,74.72
2022-09-01T08:37:01.805Z,74.23
2022-09-01T08:39:30.577Z,74.18
2022-09-01T08:42:09.690Z,74.49
2022-09-01T08:44:47.500Z,74.11
2022-09-01T08:47:28.752Z,74.33
2022-09-01T08:50:01.640Z,72.92
2022-09-01T08:53:09.004Z,71.87
2022-09-01T08:55:43.150Z,71.76
2022-09-01T08:58:16.641Z,70.66
2022-09-01T09:01:11.194Z,71.00
2022-09-01T09:03:47.727Z,71.25
2022-09-01T09:06:21.991Z,71.17
2022-09-01T09:08:56.707Z,70.38
2022-09-01T09:11:51.465Z,69.33
2022-09-01T09:14:44.053Z,69.25
2022-09-01T09:17:13.917Z,69.19
2022-09-01T09:19:43.576Z,69.61
2022-09-01T09:22:13.983Z,70.32
2022-09-01T09:24:50.874Z,69.51
2022-09-01T09:27:21.832Z,70.34
2022-09-01T09:29:53.463Z,70.30
2022-09-01T09:32:22.991Z,68.25
2022-09-01T09:34:53.726Z,69.14
2022-09-01T09:37:24.344Z,69.04
2022-09-01T09:40:11.853Z,66.59
2022-09-01T09:42:40.665Z,65.77
2022-09-01T09:45:23.135Z,65.06
2022-09-01T09:47:51.907Z,61.67
2022-09-01T09:50:25.013Z,62.21
2022-09-01T09:53:11.076Z,62.35
2022-09-01T09:55:56.037Z,63.52
2022-09-01T09:58:27.504Z,62.90
2022-09-01T10:01:07.715Z,62.93
2022-09-01T10:03:38.065Z,62.05
2022-09-01T10:06:11.946Z,63.44
2022-09-01T10:08:45.763Z,62.88
2022-09-01T10:11:33.542Z,61.60
2022-09-01T10:14:07.211Z,62.39
2022-09-01T10:16:39.865Z,61.36
2022-09-01T10:19:12.549Z,61.16
2022-09-01T10:21:43.390Z,61.65
2022-09-01T10:24:21.452Z,61.16
2022-09-01T10:26:54.251Z,61.38
2022-09-01T10:29:26.974Z,60.74
2022-09-01T10:32:21.291Z,58.58
2022-09-01T10:34:47.555Z,58.53
2022-09-01T10:37:16.332Z,58.38
2022-09-01T10:40:21.069Z,59.71
2022-09-01T10:42:57.582Z,60.55
2022-09-01T10:45:33.319Z,59.50
2022-09-01T10:48:46.121Z,58.73
2022-09-01T10:51:51.543Z,57.95
2022-09-01T10:54:58.510Z,55.89
2022-09-01T10:57:51.359Z,54.98
2022-09-01T11:03:56.493Z,54.41
2022-09-01T11:07:12.742Z,53.94
2022-09-01T11:09:43.117Z,53.75
2022-09-01T11:12:36.814Z,53.53
2022-09-01T11:15:26.866Z,52.06
2022-09-01T11:17:59.629Z,52.39
2022-09-01T11:20:33.376Z,52.22
2022-09-01T11:23:05.416Z,52.45
2022-09-01T11:25:40.635Z,52.52
2022-09-01T11:28:45.013Z,53.30
2022-09-01T11:31:23.772Z,52.62
2022-09-01T11:34:01.122Z,53.48
2022-09-01T11:36:35.757Z,53.40
2022-09-01T11:39:09.896Z,53.20
2022-09-01T11:41:55.858Z,51.68
2022-09-01T11:44:28.118Z,50.49
2022-09-01T11:47:02.405Z,52.34
2022-09-01T11:49:32.818Z,53.95
2022-09-01T11:52:03.634Z,51.99
2022-09-01T11:54:40.403Z,52.31
2022-09-01T11:57:23.960Z,52.47
2022-09-01T11:59:52.232Z,53.62
2022-09-01T12:02:23.423Z,54.84
2022-09-01T12:04:53.187Z,53.90
2022-09-01T12:07:31.662Z,54.76
2022-09-01T12:09:59.423Z,54.07
2022-09-01T12:12:31.813Z,54.77
2022-09-01T12:15:06.112Z,55.23
2022-09-01T12:17:34.845Z,54.28
2022-09-01T12:20:24.308Z,53.47
2022-09-01T12:22:56.759Z,53.92
2022-09-01T12:25:27.122Z,53.73
2022-09-01T12:27:56.099Z,54.42
2022-09-01T12:30:24.966Z,56.54
2022-09-01T12:33:22.954Z,55.83
2022-09-01T12:35:42.163Z,54.22
2022-09-01T12:38:31.264Z,55.48
2022-09-01T12:40:59.987Z,55.60
2022-09-01T12:43:35.342Z,55.29
2022-09-01T12:46:04.615Z,54.02
2022-09-01T12:48:34.586Z,53.70
2022-09-01T12:51:04.868Z,55.00
2022-09-01T12:53:37.093Z,54.52
2022-09-01T12:56:29.755Z,55.08
2022-09-01T12:59:10.745Z,55.39
2022-09-01T13:01:45.012Z,55.45
2022-09-01T13:04:29.778Z,55.22
2022-09-01T13:07:03.856Z,54.86
2022-09-01T13:09:33.199Z,55.73
2022-09-01T13:12:13.200Z,54.23
2022-09-01T13:14:40.856Z,53.83
2022-09-01T13:17:14.066Z,53.83
2022-09-01T13:19:42.523Z,51.62
2022-09-01T13:22:11.301Z,53.73
2022-09-01T13:24:40.856Z,53.29
2022-09-01T13:27:24.307Z,52.62
2022-09-01T13:29:52.847Z,53.08
2022-09-01T13:32:22.864Z,52.26
2022-09-01T13:34:53.596Z,52.86
2022-09-01T13:37:22.929Z,53.77
2022-09-01T13:39:52.056Z,53.54
2022-09-01T13:42:20.857Z,53.53
2022-09-01T13:44:52.594Z,53.04
2022-09-01T13:47:31.853Z,53.38
2022-09-01T13:50:18.724Z,53.92
2022-09-01T13:52:55.255Z,54.73
2022-09-01T13:55:27.379Z,54.30
2022-09-01T13:57:55.968Z,54.56
2022-09-01T14:00:25.593Z,55.34
2022-09-01T14:02:56.542Z,53.33
2022-09-01T14:05:26.897Z,54.31
2022-09-01T14:07:56.216Z,56.03
2022-09-01T14:10:26.762Z,56.29
2022-09-01T14:12:55.163Z,55.04
2022-09-01T14:15:27.155Z,55.76
2022-09-01T14:17:57.430Z,56.59
2022-09-01T14:20:26.947Z,55.88
2022-09-01T14:22:56.360Z,56.68
2022-09-01T14:25:26.447Z,55.22
2022-09-01T14:27:54.740Z,55.75
2022-09-01T14:30:29.040Z,55.33
2022-09-01T14:33:00.317Z,55.04
2022-09-01T14:35:28.814Z,54.27
2022-09-01T14:37:59.477Z,53.95
2022-09-01T14:40:29.171Z,55.46
2022-09-01T14:42:57.369Z,54.48
2022-09-01T14:45:27.639Z,55.58
2022-09-01T14:47:57.469Z,54.56
2022-09-01T14:50:26.642Z,55.61
2022-09-01T14:52:57.641Z,54.80
2022-09-01T14:55:28.481Z,54.68
2022-09-01T14:57:58.365Z,54.68
2022-09-01T15:00:26.489Z,55.41
2022-09-01T15:02:56.344Z,55.75
2022-09-01T15:05:25.046Z,53.50
2022-09-01T15:07:54.755Z,52.57
2022-09-01T15:10:25.811Z,54.14
2022-09-01T15:12:58.472Z,54.04
2022-09-01T15:15:27.876Z,54.97
2022-09-01T15:17:56.723Z,55.56
2022-09-01T15:20:42.690Z,55.40
2022-09-01T15:23:11.688Z,54.06
2022-09-01T15:25:39.455Z,54.51
2022-09-01T15:28:10.429Z,53.46
2022-09-01T15:30:39.806Z,52.68
2022-09-01T15:33:13.213Z,53.00
2022-09-01T15:35:43.653Z,51.68
2022-09-01T15:38:16.163Z,50.49
2022-09-01T15:40:57.840Z,49.49
2022-09-01T15:43:28.664Z,48.36
2022-09-01T15:45:58.257Z,49.10
2022-09-01T15:48:28.070Z,50.08
2022-09-01T15:51:18.338Z,49.77
2022-09-01T15:53:46.790Z,50.12
2022-09-01T15:56:14.494Z,50.35
2022-09-01T15:59:00.098Z,50.48
2022-09-01T16:01:30.304Z,50.08
2022-09-01T16:03:58.106Z,50.98
2022-09-01T16:06:26.399Z,51.62
2022-09-01T16:08:54.790Z,52.36
2022-09-01T16:11:24.019Z,53.36
2022-09-01T16:13:54.500Z,55.11
2022-09-01T16:16:38.656Z,55.14
2022-09-01T16:19:21.385Z,55.22
2022-09-01T16:21:54.707Z,55.35
2022-09-01T16:24:23.356Z,55.13
2022-09-01T16:26:51.019Z,55.49
2022-09-01T16:29:35.879Z,56.12
2022-09-01T16:32:03.885Z,55.71
2022-09-01T16:34:32.947Z,56.10
2022-09-01T16:37:07.207Z,55.42
2022-09-01T16:39:43.486Z,54.83
2022-09-01T16:42:22.120Z,56.27
2022-09-01T16:45:02.007Z,56.58
2022-09-01T16:47:48.951Z,55.86
2022-09-01T16:50:28.582Z,56.10
2022-09-01T16:53:16.355Z,57.55
2022-09-01T16:55:58.759Z,55.70
2022-09-01T16:58:39.124Z,56.66
2022-09-01T17:01:23.675Z,57.29
2022-09-01T17:04:06.522Z,57.84
2022-09-01T17:06:40.973Z,57.00
2022-09-01T17:09:12.994Z,56.00
2022-09-01T17:11:49.441Z,56.47
2022-09-01T17:14:22.502Z,56.41
2022-09-01T17:16:55.418Z,55.81
2022-09-01T17:19:23.575Z,56.81
2022-09-01T17:21:57.135Z,56.91
2022-09-01T17:24:35.135Z,57.20
2022-09-01T17:27:10.940Z,57.82
2022-09-01T17:29:43.485Z,58.90
2022-09-01T17:32:22.179Z,59.31
2022-09-01T17:34:58.219Z,60.03
2022-09-01T17:37:40.318Z,60.89
2022-09-01T17:40:18.560Z,61.19
2022-09-01T17:42:55.200Z,61.80
2022-09-01T17:45:29.041Z,61.94
2022-09-01T17:48:08.931Z,62.38
2022-09-01T17:53:32.033Z,62.55
2022-09-01T17:56:08.030Z,62.94
2022-09-01T17:58:47.815Z,62.68
2022-09-01T18:01:25.590Z,62.77
2022-09-01T18:04:13.607Z,63.22
2022-09-01T18:06:49.058Z,63.50
2022-09-01T18:09:21.533Z,63.64
2022-09-01T18:11:55.193Z,64.00
2022-09-01T18:14:28.172Z,64.16
2022-09-01T18:17:03.653Z,64.62
2022-09-01T18:19:38.198Z,64.91
2022-09-01T18:22:11.227Z,65.37
2022-09-01T18:24:48.455Z,65.32
2022-09-01T18:27:16.689Z,65.60
2022-09-01T18:29:46.347Z,65.97
2022-09-01T18:32:25.333Z,66.04
2022-09-01T18:35:04.366Z,66.19
2022-09-01T18:37:43.019Z,66.07
2022-09-01T18:40:20.003Z,66.17
2022-09-01T18:42:58.056Z,66.38
2022-09-01T18:45:35.871Z,66.20
2022-09-01T18:48:16.881Z,66.64
2022-09-01T18:50:53.113Z,67.00
2022-09-01T18:53:34.345Z,67.05
2022-09-01T18:56:07.620Z,67.27
2022-09-01T18:58:50.944Z,67.47
2022-09-01T19:01:30.291Z,67.27
2022-09-01T19:04:10.391Z,67.83
2022-09-01T19:06:53.134Z,68.16
2022-09-01T19:09:28.627Z,68.16
2022-09-01T19:12:10.531Z,68.37
2022-09-01T19:14:46.352Z,68.98
2022-09-01T19:17:42.089Z,68.82
2022-09-01T19:20:13.465Z,69.02
2022-09-01T19:22:50.423Z,69.09
2022-09-01T19:25:37.507Z,69.19
2022-09-01T19:28:12.517Z,69.29
2022-09-01T19:30:47.662Z,69.04
2022-09-01T19:33:19.963Z,69.48
2022-09-01T19:35:52.459Z,69.53
2022-09-01T19:38:27.732Z,69.80
2022-09-01T19:41:02.315Z,69.69
2022-09-01T19:43:34.774Z,70.07
2022-09-01T19:46:13.199Z,70.05
2022-09-01T19:48:47.627Z,70.31
2022-09-01T19:51:20.228Z,70.20
2022-09-01T19:53:55.486Z,70.38
2022-09-01T19:56:28.840Z,70.38
2022-09-01T19:59:01.604Z,70.34
2022-09-01T20:01:40.508Z,70.62
2022-09-01T20:04:18.820Z,70.68
2022-09-01T20:06:51.274Z,70.74
2022-09-01T20:09:26.100Z,70.97
2022-09-01T20:11:58.794Z,71.12
2022-09-01T20:14:45.705Z,70.97
2022-09-01T20:17:21.720Z,71.09
2022-09-01T20:19:56.600Z,71.17
2022-09-01T20:22:32.540Z,71.22
2022-09-01T20:25:10.140Z,71.38
2022-09-01T20:27:48.388Z,71.39
2022-09-01T20:30:20.095Z,71.36
2022-09-01T20:32:55.178Z,71.60
2022-09-01T20:35:30.553Z,71.87
2022-09-01T20:38:03.167Z,71.91
2022-09-01T20:40:36.009Z,72.30
2022-09-01T20:43:12.897Z,72.41
2022-09-01T20:45:40.992Z,72.45
2022-09-01T20:48:14.710Z,72.89
2022-09-01T20:50:52.822Z,73.07
2022-09-01T20:53:37.505Z,73.08
2022-09-01T20:56:12.984Z,73.17
2022-09-01T20:58:44.737Z,73.26
2022-09-01T21:01:19.214Z,73.41
2022-09-01T21:03:58.832Z,73.61
2022-09-01T21:06:40.187Z,73.51
2022-09-01T21:09:13.670Z,73.69
2022-09-01T21:11:48.471Z,73.62
2022-09-01T21:14:31.503Z,73.98
2022-09-01T21:17:08.907Z,74.24
2022-09-01T21:19:47.400Z,74.32
2022-09-01T21:22:21.684Z,74.47
2022-09-01T21:24:51.199Z,74.86
2022-09-01T21:27:24.220Z,75.33
2022-09-01T21:29:58.534Z,75.48
2022-09-01T21:32:27.403Z,75.72
2022-09-01T21:34:55.572Z,75.89
2022-09-01T21:37:24.275Z,76.17
2022-09-01T21:39:54.364Z,76.03
2022-09-01T21:42:27.010Z,76.08
2022-09-01T21:44:57.191Z,76.34
2022-09-01T21:47:25.443Z,76.52
2022-09-01T21:49:53.492Z,76.43
2022-09-01T21:52:21.354Z,76.62
2022-09-01T21:54:49.783Z,76.95
2022-09-01T21:57:17.658Z,77.17
2022-09-01T21:59:47.180Z,77.22
2022-09-01T22:02:14.930Z,77.39
2022-09-01T22:04:43.461Z,77.64
2022-09-01T22:07:15.123Z,77.62
2022-09-01T22:09:43.550Z,77.62
2022-09-01T22:12:12.035Z,77.63
2022-09-01T22:14:39.862Z,77.72
2022-09-01T22:17:08.962Z,77.74
2022-09-01T22:19:36.943Z,77.88
2022-09-01T22:22:05.167Z,78.09
2022-09-01T22:24:33.853Z,77.99
2022-09-01T22:27:01.595Z,78.38
2022-09-01T22:29:29.738Z,78.75
2022-09-01T22:31:57.377Z,78.43
2022-09-01T22:34:26.955Z,78.31
2022-09-01T22:36:54.596Z,78.64
2022-09-01T22:39:25.250Z,78.44
2022-09-01T22:41:53.967Z,78.89
2022-09-01T22:44:22.408Z,78.94
2022-09-01T22:46:50.282Z,79.17
2022-09-01T22:49:18.759Z,79.28
2022-09-01T22:51:47.776Z,79.31
2022-09-01T22:54:16.286Z,79.17
2022-09-01T22:56:45.161Z,79.40
2022-09-01T22:59:15.312Z,79.34
2022-09-01T23:01:47.588Z,79.29
2022-09-01T23:04:17.607Z,79.30
2022-09-01T23:06:49.563Z,79.47
2022-09-01T23:09:19.752Z,79.51
2022-09-01T23:11:49.077Z,79.72
2022-09-01T23:14:18.498Z,79.59
2022-09-01T23:16:47.082Z,79.84
2022-09-01T23:19:20.251Z,79.51
2022-09-01T23:21:51.025Z,79.88
2022-09-01T23:24:19.904Z,80.28
2022-09-01T23:26:48.387Z,80.22
2022-09-01T23:29:16.752Z,79.99
2022-09-01T23:31:44.612Z,79.87
2022-09-01T23:34:13.875Z,79.93
2022-09-01T23:36:42.841Z,79.87
2022-09-01T23:39:11.967Z,79.84
2022-09-01T23:41:40.194Z,79.61
2022-09-01T23:44:10.412Z,79.95
2022-09-01T23:46:41.000Z,80.21
2022-09-01T23:49:09.613Z,80.18
2022-09-01T23:51:38.831Z,79.78
2022-09-01T23:54:07.211Z,80.51
2022-09-01T23:56:36.723Z,80.84
2022-09-01T23:59:04.936Z,81.25
